• Join FlightAware (Why Join?)
  • Login
  • US Flag 
05:41PM EST


 

Airport Tracker/Info


-or-


 

Live Flight TrackerFlight Track Log ✈ SWA286 ✈ 02-Feb-2014 ✈ KPHX - KDEN

Flight Track Log - Related Links

Times and Time Zones

All times are in EST time to prevent confusion due to time zone crossing. See the SWA286 flight status page for this flight to view local times or setup timezone preferences in your user account.

Time Position Orientation Groundspeed Altitude Reporting Facility
EST Latitude Longitude Course Direction KTS MPH feet Rate Location/Type
06:11PM 33.4333 -112.0333 270° West 176 203 2,000  Level Phoenix TRACON
06:12PM 33.4333 -112.1000 270° West 214 246 4,200 2,220 Climbing Phoenix TRACON
06:12PM 33.4417 -112.1372 285° West 224 258 5,600 2,880 Climbing Albuquerque Center
06:13PM 33.5033 -112.1253 North 247 284 8,700 2,460 Climbing Albuquerque Center
06:15PM 33.5736 -112.0747 31° Northeast 303 349 10,700 1,860 Climbing Albuquerque Center
06:16PM 33.6628 -112.0117 30° Northeast 374 430 12,600 2,400 Climbing Albuquerque Center
06:17PM 33.7628 -111.9386 31° Northeast 417 480 15,700 2,580 Climbing Albuquerque Center
06:18PM 33.8669 -111.8633 31° Northeast 436 502 18,000 2,400 Climbing Albuquerque Center
06:19PM 33.9950 -111.7697 31° Northeast 466 536 20,700 2,280 Climbing Albuquerque Center
06:20PM 34.1247 -111.6956 25° Northeast 478 550 22,700 1,800 Climbing Albuquerque Center
06:21PM 34.2375 -111.6561 16° North 484 557 24,400 1,620 Climbing Albuquerque Center
06:22PM 34.3706 -111.6042 18° North 496 571 26,100 1,800 Climbing Albuquerque Center
06:23PM 34.5042 -111.5503 18° North 504 580 28,100 2,220 Climbing Albuquerque Center
06:24PM 34.6456 -111.4192 37° Northeast 533 613 30,700 2,040 Climbing Albuquerque Center
06:25PM 34.7503 -111.2861 46° Northeast 541 623 32,400 1,680 Climbing Albuquerque Center
06:26PM 34.8561 -111.1536 46° Northeast 546 628 34,200 1,260 Climbing Albuquerque Center
06:27PM 34.9597 -111.0206 46° Northeast 543 625 35,000 1,140 Climbing Albuquerque Center
06:28PM 35.0658 -110.8856 46° Northeast 529 609 36,600 960 Climbing Albuquerque Center
06:29PM 35.1761 -110.7475 46° Northeast 513 590 37,000 180 Climbing Albuquerque Center
06:30PM 35.2661 -110.6308 47° Northeast 499 574 37,000  Level Albuquerque Center
06:31PM 35.3558 -110.5131 47° Northeast 495 570 37,000  Level Albuquerque Center
06:32PM 35.4633 -110.3775 46° Northeast 495 570 37,000  Level Albuquerque Center
06:33PM 35.5550 -110.2589 46° Northeast 498 573 37,000  Level Albuquerque Center
06:34PM 35.6603 -110.1217 47° Northeast 496 571 37,000  Level Albuquerque Center
06:35PM 35.7506 -110.0047 46° Northeast 493 567 37,000  Level Albuquerque Center
06:36PM 35.8414 -109.8861 47° Northeast 495 570 37,000  Level Albuquerque Center
06:37PM 35.9322 -109.7681 46° Northeast 497 572 37,000  Level Denver Center
06:38PM 36.0217 -109.6506 47° Northeast 492 566 37,000  Level Denver Center
06:39PM 36.1256 -109.5122 47° Northeast 490 564 37,000  Level Denver Center
06:40PM 36.2144 -109.3944 47° Northeast 488 562 37,000  Level Denver Center
06:41PM 36.3028 -109.2767 47° Northeast 485 558 37,000  Level Denver Center
06:42PM 36.4064 -109.1383 47° Northeast 486 559 37,000  Level Denver Center
06:43PM 36.4947 -109.0194 47° Northeast 486 559 37,000  Level Denver Center
06:44PM 36.5847 -108.8992 47° Northeast 491 565 37,000  Level Denver Center
06:45PM 36.6892 -108.7594 47° Northeast 492 566 37,000  Level Denver Center
06:46PM 36.7778 -108.6378 48° Northeast 493 567 37,000  Level Denver Center
06:47PM 36.8858 -108.5011 45° Northeast 495 570 37,000  Level Denver Center
06:48PM 36.9775 -108.3844 45° Northeast 492 566 37,000  Level Denver Center
06:49PM 37.0683 -108.2653 46° Northeast 492 566 37,000  Level Denver Center
06:50PM 37.1753 -108.1261 46° Northeast 496 571 37,000  Level Denver Center
06:51PM 37.2672 -108.0050 46° Northeast 499 574 37,000  Level Denver Center
06:52PM 37.3750 -107.8650 46° Northeast 501 577 37,000  Level Denver Center
06:53PM 37.4667 -107.7472 46° Northeast 496 571 37,000  Level Denver Center
06:54PM 37.5711 -107.6061 47° Northeast 493 567 37,000  Level Denver Center
06:55PM 37.6619 -107.4867 46° Northeast 493 567 37,000  Level Denver Center
06:57PM 37.7519 -107.3672 46° Northeast 492 566 37,000  Level Denver Center
06:58PM 37.8725 -107.2086 46° Northeast 490 564 37,000  Level Denver Center
06:59PM 37.9772 -107.0636 47° Northeast 498 573 37,000  Level Denver Center
07:00PM 38.0653 -106.9433 47° Northeast 492 566 37,000  Level Denver Center
07:01PM 38.1686 -106.8042 47° Northeast 487 560 37,000  Level Denver Center
07:02PM 38.2564 -106.6847 47° Northeast 485 558 37,000  Level Denver Center
07:03PM 38.3444 -106.5644 47° Northeast 487 560 37,000  Level Denver Center
07:04PM 38.4369 -106.4381 47° Northeast 488 562 37,000 -360 Level Denver Center
07:05PM 38.5292 -106.3108 47° Northeast 489 563 36,300 -1,740 Descending Denver Center
07:06PM 38.6342 -106.1631 48° Northeast 483 556 33,500 -2,640 Descending Denver Center
07:07PM 38.7267 -106.0369 47° Northeast 486 559 30,900 -2,400 Descending Denver Center
07:08PM 38.8156 -105.9122 48° Northeast 477 549 28,600 -2,280 Descending Denver Center
07:09PM 38.9064 -105.7842 48° Northeast 455 524 26,300 -2,160 Descending Denver Center
07:10PM 38.9839 -105.6739 48° Northeast 439 505 24,200 -2,100 Descending Denver Center
07:11PM 39.0717 -105.5506 47° Northeast 421 484 22,000 -1,920 Descending Denver Center
07:12PM 39.1472 -105.4442 48° Northeast 402 463 20,300 -1,500 Descending Denver Center
07:13PM 39.2208 -105.3517 44° Northeast 365 420 19,000 -1,620 Descending Denver Center
07:14PM 39.2722 -105.2353 60° Northeast 359 413 17,100 -1,860 Descending Denver Center
07:15PM 39.2950 -105.1119 77° East 352 405 15,300 -1,260 Descending Denver Center
07:16PM 39.3161 -104.9925 77° East 343 395 14,500 -720 Descending Denver Center
07:17PM 39.3428 -104.8769 73° East 320 368 13,900 -1,080 Descending Denver Center
07:18PM 39.4158 -104.8156 33° Northeast 311 358 12,300 -1,500 Descending Denver Center
07:19PM 39.4942 -104.7547 31° Northeast 307 353 10,800 -1,440 Descending Denver Center
07:20PM 39.5656 -104.7022 30° Northeast 300 345 9,400 -1,380 Descending Denver Center
07:21PM 39.6361 -104.6631 23° Northeast 279 321 8,000 -840 Descending Denver Center
07:22PM 39.7117 -104.6619 North 245 282 7,700 -660 Descending Denver Center
07:23PM 39.7644 -104.6614 360° North 196 226 6,700 -960 Descending Denver Center
07:24PM 39.8125 -104.6614 360° North 164 189 5,800 -660 Descending Denver Center
07:25PM 39.8456 -104.6603 North 137 158 5,400 -420 Descending Denver Center
07:27PM 39.8500 -104.6667 North  Level FlightAware Approximate
07:34PM 39.8617 -104.6732 North  Level Estimated
07:35PM 39.8617 -104.6732 North  Level Estimated
07:36PM 39.8617 -104.6732 North  Level Estimated